• Join FlightAware (Why Join?)
  • Login
  • US Flag 
11:42PM EST


 

Airport Tracker/Info


-or-


 

Live Flight TrackerFlight Track Log ✈ N207JB ✈ 29-May-2013 ✈ KOPF - KTLH

Flight Track Log - Related Links

Times and Time Zones

All times are in EDT time to prevent confusion due to time zone crossing. See the N207JB flight status page for this flight to view local times or setup timezone preferences in your user account.

Time Position Orientation Groundspeed Altitude Reporting Facility
EDT Latitude Longitude Course Direction KTS MPH feet Rate Location/Type
06:47AM 25.8978 -80.2128 84° East 261 300 2,000  Level Miami Center
06:48AM 25.9089 -80.1783 70° East 240 276 2,000 480 Level Miami Center
06:48AM 25.9514 -80.1542 27° Northeast 299 344 2,500 600 Climbing Miami Center
06:49AM 25.9783 -80.1572 354° North 294 338 2,600 1,080 Climbing Miami Center
06:49AM 26.0042 -80.2156 296° West 303 349 3,600 2,100 Climbing Miami Center
06:50AM 26.0097 -80.2458 282° West 294 338 4,700 2,820 Climbing Miami Center
06:50AM 26.0061 -80.3081 266° West 291 335 6,500 2,760 Climbing Miami Center
06:51AM 26.0097 -80.3361 278° West 291 335 7,500 2,640 Climbing Miami Center
06:52AM 26.0103 -80.4008 271° West 295 339 9,200 2,700 Climbing Miami Center
06:52AM 26.0139 -80.4286 278° West 306 352 10,200 2,340 Climbing Miami Center
06:53AM 26.0217 -80.5306 275° West 331 381 12,400 2,160 Climbing Miami Center
06:54AM 26.0864 -80.6181 309° West 338 389 14,600 2,400 Climbing Miami Center
06:55AM 26.1594 -80.6967 316° Northwest 351 404 17,200 2,220 Climbing Miami Center
06:56AM 26.2411 -80.7689 322° Northwest 362 417 19,100 1,740 Climbing Miami Center
06:57AM 26.3208 -80.8294 326° Northwest 374 430 20,700 1,560 Climbing Miami Center
06:58AM 26.4214 -80.9000 328° Northwest 388 447 22,300 1,500 Climbing Miami Center
06:59AM 26.5197 -80.9661 329° Northwest 400 460 23,800 1,380 Climbing Miami Center
07:00AM 26.6139 -81.0319 328° Northwest 400 460 25,100 1,260 Climbing Miami Center
07:01AM 26.7100 -81.1006 327° Northwest 405 466 26,400 1,260 Climbing Miami Center
07:02AM 26.8083 -81.1692 328° Northwest 410 472 27,700 1,260 Climbing Miami Center
07:03AM 26.9044 -81.2381 327° Northwest 410 472 29,000 1,140 Climbing Miami Center
07:04AM 27.0022 -81.3094 327° Northwest 410 472 30,000 1,020 Climbing Miami Center
07:05AM 27.0983 -81.3758 328° Northwest 410 472 31,100 900 Climbing Miami Center
07:06AM 27.1964 -81.4475 327° Northwest 410 472 31,900 420 Climbing Miami Center
07:07AM 27.2903 -81.5142 328° Northwest 422 486 32,000  Climbing Miami Center
07:08AM 27.3964 -81.5886 328° Northwest 441 507 32,000  Level Miami Center
07:09AM 27.5144 -81.6756 327° Northwest 455 524 32,000  Level Miami Center
07:10AM 27.6247 -81.7528 328° Northwest 455 524 32,000  Level Miami Center
07:11AM 27.7325 -81.8325 327° Northwest 461 531 32,000  Level Miami Center
07:12AM 27.8303 -81.9025 328° Northwest 461 531 32,000  Level Miami Center
07:14AM 28.0472 -82.0672 326° Northwest 466 536 32,000  Level Jacksonville Center
07:15AM 28.1478 -82.1558 322° Northwest 466 536 32,000  Level Jacksonville Center
07:16AM 28.2483 -82.2469 321° Northwest 460 529 32,000  Level Jacksonville Center
07:17AM 28.3469 -82.3336 322° Northwest 460 529 32,000  Level Jacksonville Center
07:18AM 28.4475 -82.4250 321° Northwest 460 529 32,000  Level Jacksonville Center
07:19AM 28.5458 -82.5169 321° Northwest 460 529 32,000  Level Jacksonville Center
07:20AM 28.6464 -82.6039 323° Northwest 460 529 32,000  Level Jacksonville Center
07:21AM 28.7444 -82.6936 321° Northwest 460 529 32,000 -180 Level Jacksonville Center
07:22AM 28.8428 -82.7858 321° Northwest 455 524 31,700 -900 Descending Jacksonville Center
07:23AM 28.9408 -82.8761 321° Northwest 455 524 30,300 -1,500 Descending Jacksonville Center
07:24AM 29.0431 -82.9661 322° Northwest 455 524 28,800 -1,500 Descending Jacksonville Center
07:25AM 29.1392 -83.0567 321° Northwest 455 524 27,400 -1,500 Descending Jacksonville Center
07:26AM 29.2392 -83.1447 322° Northwest 455 524 25,900 -1,500 Descending Jacksonville Center
07:27AM 29.3369 -83.2356 321° Northwest 455 524 24,400 -1,500 Descending Jacksonville Center
07:28AM 29.4328 -83.3242 321° Northwest 450 518 22,900 -1,200 Descending Jacksonville Center
07:29AM 29.5306 -83.4153 321° Northwest 450 518 22,000 -780 Descending Jacksonville Center
07:30AM 29.6261 -83.5042 321° Northwest 450 518 21,400 -1,560 Descending Jacksonville Center
07:31AM 29.7258 -83.5958 321° Northwest 456 525 18,900 -2,460 Descending Jacksonville Center
07:32AM 29.8319 -83.6947 321° Northwest 456 525 16,500 -2,460 Descending Jacksonville Center
07:33AM 29.9211 -83.7769 321° Northwest 438 504 14,000 -2,460 Descending Jacksonville Center
07:34AM 30.0039 -83.8544 321° Northwest 415 478 11,600 -2,340 Descending Jacksonville Center
07:35AM 30.0806 -83.9272 321° Northwest 382 440 9,400 -2,100 Descending Jacksonville Center
07:36AM 30.1533 -83.9928 322° Northwest 353 406 7,500 -1,920 Descending Jacksonville Center
07:37AM 30.2089 -84.0583 314° West 320 368 5,600 -1,860 Descending Jacksonville Center
07:38AM 30.2478 -84.1406 299° West 293 337 3,800 -1,380 Descending Jacksonville Center
07:39AM 30.2889 -84.2083 305° West 286 329 2,900 3,600 Descending Jacksonville Center
07:40AM 30.3300 -84.2861 301° West 286 329 11,000 4,020 Climbing Jacksonville Center
07:41AM 30.3708 -84.3661 301° West 286 329 11,000  Level Jacksonville Center
07:43AM 30.3967 -84.3509 180° South  Level Estimated
07:50AM 30.3967 -84.3509 180° South  Level Estimated
07:51AM 30.3967 -84.3509 180° South  Level Estimated